CheckWX is a tool to help pilots better visualize weather data.  It is not intended as a substitute for an official pre-flight weather briefing.

20:36:37 UTC

KDRT METAR
Del Rio International Airport
Del Rio, Texas, USA
Current

44 mins ago

KDRT 181953Z AUTO 11010KT 10SM CLR 16/M05 A3010 RMK AO2 SLP185 T01561050
Observed
Feb-18 @ 19:53 UTC
Wind
  • 110° at 10 KTS
Visibility
10 SM
Flight Rules
VFR
Cloud Levels
  • Clear skies
Temperature
16°C / 61°F
Dewpoint
-5°C / 23°F
Humidity
23%
Altimeter
30.1" Hg
Pressure
1018.5 hPa
Previous

2 hours ago

KDRT 181853Z AUTO 12010G20KT 10SM CLR 15/M06 A3014 RMK AO2 SLP198 T01501061
Observed
Feb-18 @ 18:53 UTC
Wind
  • 120° at 10 KTS
  • Gusting to 20 KTS
Visibility
10 SM
Flight Rules
VFR
Cloud Levels
  • Clear skies
Temperature
15°C / 59°F
Dewpoint
-6°C / 21°F
Humidity
23%
Altimeter
30.14" Hg
Pressure
1019.8 hPa
Previous

3 hours ago

KDRT 181753Z AUTO 13014G19KT 10SM CLR 14/M05 A3017 RMK AO2 SLP211 T01441050 10144 20056 50000
Observed
Feb-18 @ 17:53 UTC
Wind
  • 130° at 14 KTS
  • Gusting to 19 KTS
Visibility
10 SM
Flight Rules
VFR
Cloud Levels
  • Clear skies
Temperature
14°C / 57°F
Dewpoint
-5°C / 23°F
Humidity
27%
Altimeter
30.17" Hg
Pressure
1021.1 hPa